Time;durP1;ratioP1;P1;durP2;ratioP2;P2;SDS_P1;SDS_P2;PMS_P1;PMS_P2;Temp;Humidity;BMP_temperature;BMP_pressure;BME280_temperature;BME280_humidity;BME280_pressure;Samples;Min_cycle;Max_cycle;Signal;HPM_P1;HPM_P2
2021/03/17 00:00:57;;;;;;;13.70;3.47;;;21.30;84.70;;;;;;5062474;28;20070;-70
2021/03/17 00:03:25;;;;;;;20.15;3.53;;;21.30;86.10;;;;;;5057386;28;20390;-69
2021/03/17 00:05:52;;;;;;;14.43;4.15;;;21.40;85.40;;;;;;5034507;28;20110;-70
2021/03/17 00:08:21;;;;;;;12.02;2.55;;;21.70;85.00;;;;;;5054835;28;20023;-70
2021/03/17 00:10:51;;;;;;;7.07;2.03;;;21.80;83.40;;;;;;5057017;28;20165;-71
2021/03/17 00:13:21;;;;;;;11.80;2.75;;;21.90;81.90;;;;;;5060211;28;20043;-72
2021/03/17 00:15:50;;;;;;;8.82;1.98;;;21.80;81.20;;;;;;5068654;28;20040;-67
2021/03/17 00:18:17;;;;;;;11.60;2.58;;;21.60;80.10;;;;;;5059874;28;20668;-69
2021/03/17 00:20:45;;;;;;;10.73;2.72;;;21.50;79.90;;;;;;5073256;28;20036;-68
2021/03/17 00:23:12;;;;;;;10.63;2.63;;;21.50;79.10;;;;;;5065389;28;20024;-69
2021/03/17 00:25:41;;;;;;;15.35;3.83;;;21.50;78.80;;;;;;5073823;28;20036;-68
2021/03/17 00:28:12;;;;;;;10.70;2.15;;;21.60;77.70;;;;;;5061523;28;20111;-69
2021/03/17 00:30:41;;;;;;;7.25;1.73;;;21.60;78.40;;;;;;5064816;28;20041;-70
2021/03/17 00:33:11;;;;;;;16.33;2.67;;;21.70;76.50;;;;;;5063333;28;20029;-71
2021/03/17 00:35:39;;;;;;;10.70;2.10;;;21.70;77.10;;;;;;5063415;28;20044;-73
2021/03/17 00:38:10;;;;;;;8.68;2.15;;;21.80;76.50;;;;;;5058038;28;20053;-71
2021/03/17 00:40:38;;;;;;;10.10;2.00;;;22.00;75.40;;;;;;5053537;28;20033;-69
2021/03/17 00:43:06;;;;;;;9.05;2.45;;;22.20;75.60;;;;;;5064657;28;20086;-69
2021/03/17 00:45:33;;;;;;;13.18;1.90;;;22.40;74.00;;;;;;5058586;28;20032;-69
2021/03/17 00:48:00;;;;;;;12.57;2.75;;;22.60;72.80;;;;;;5060610;28;20024;-67
2021/03/17 00:50:28;;;;;;;11.23;2.78;;;22.90;72.30;;;;;;5067004;28;20044;-68
2021/03/17 00:52:57;;;;;;;11.73;2.70;;;23.20;72.40;;;;;;5066412;28;20812;-68
2021/03/17 00:55:25;;;;;;;14.52;3.05;;;23.30;71.90;;;;;;5059307;28;20036;-68
2021/03/17 00:57:52;;;;;;;6.90;2.08;;;23.30;69.20;;;;;;5070526;28;20025;-68
2021/03/17 01:00:20;;;;;;;13.30;2.80;;;23.40;67.60;;;;;;5065740;28;20028;-67
2021/03/17 01:02:49;;;;;;;8.98;1.77;;;23.40;67.10;;;;;;5061960;28;20165;-70
2021/03/17 01:05:16;;;;;;;11.30;1.80;;;23.50;66.60;;;;;;5065502;28;20107;-71
2021/03/17 01:07:44;;;;;;;8.10;2.03;;;23.50;64.10;;;;;;5061748;28;20032;-66
2021/03/17 01:10:18;;;;;;;8.95;2.47;;;23.70;64.20;;;;;;5045378;28;20115;-67
2021/03/17 01:12:45;;;;;;;8.38;1.77;;;23.90;64.40;;;;;;5064736;28;20124;-67
2021/03/17 01:15:19;;;;;;;9.25;1.33;;;23.90;63.70;;;;;;5068189;28;20036;-68
2021/03/17 01:17:48;;;;;;;10.13;1.75;;;23.80;63.90;;;;;;5059368;28;20029;-68
2021/03/17 01:20:17;;;;;;;12.10;2.65;;;23.70;63.50;;;;;;5065649;28;20390;-69
2021/03/17 01:22:45;;;;;;;10.82;2.20;;;23.90;62.50;;;;;;5067065;28;20073;-68
2021/03/17 01:25:17;;;;;;;10.85;1.80;;;23.80;61.30;;;;;;5063606;28;20028;-69
2021/03/17 01:27:44;;;;;;;6.20;2.30;;;23.70;61.30;;;;;;5066998;28;20269;-68
2021/03/17 01:30:13;;;;;;;12.27;2.20;;;23.80;61.50;;;;;;5055321;28;20040;-68
2021/03/17 01:32:40;;;;;;;7.78;1.95;;;23.70;61.10;;;;;;5054420;28;21125;-71
2021/03/17 01:35:13;;;;;;;11.38;2.47;;;23.70;61.50;;;;;;5060852;28;20063;-68
2021/03/17 01:37:41;;;;;;;10.90;2.15;;;23.60;62.40;;;;;;5058811;28;20121;-68
2021/03/17 01:40:09;;;;;;;11.02;2.05;;;23.60;62.00;;;;;;5065037;28;20039;-68
2021/03/17 01:42:38;;;;;;;11.13;3.25;;;23.50;62.60;;;;;;5060285;28;20465;-70
2021/03/17 01:45:11;;;;;;;13.80;3.10;;;23.50;62.80;;;;;;5061585;28;20032;-67
2021/03/17 01:47:40;;;;;;;10.90;1.75;;;23.40;62.80;;;;;;5058907;28;20035;-69
2021/03/17 01:50:13;;;;;;;13.57;1.90;;;23.30;64.20;;;;;;5063074;28;20138;-69
2021/03/17 01:52:42;;;;;;;12.43;2.08;;;23.30;64.90;;;;;;5068960;28;20025;-68
2021/03/17 01:55:10;;;;;;;8.90;2.47;;;23.30;64.60;;;;;;5057370;28;20386;-68
2021/03/17 01:57:39;;;;;;;8.13;2.72;;;23.40;65.10;;;;;;5057518;28;20671;-68
2021/03/17 02:00:11;;;;;;;6.35;1.98;;;23.40;64.90;;;;;;5066376;28;20118;-69
2021/03/17 02:02:57;;;;;;;10.35;2.15;;;23.30;65.00;;;;;;5065157;28;20044;-69
2021/03/17 02:05:30;;;;;;;5.95;2.28;;;23.30;64.70;;;;;;5068239;28;20029;-68
2021/03/17 02:08:00;;;;;;;7.00;1.92;;;23.20;64.40;;;;;;5063847;28;20146;-68
2021/03/17 02:10:27;;;;;;;10.13;2.15;;;23.30;64.80;;;;;;5065878;28;20036;-69
2021/03/17 02:13:07;;;;;;;8.30;1.73;;;23.20;64.90;;;;;;5046409;28;20032;-68
2021/03/17 02:15:53;;;;;;;8.38;1.73;;;23.30;65.90;;;;;;5071458;28;21621;-68
2021/03/17 02:18:29;;;;;;;8.35;1.67;;;23.30;64.50;;;;;;5061557;28;20025;-68
2021/03/17 02:21:33;;;;;;;8.80;2.47;;;23.10;64.60;;;;;;5072447;28;20036;-68
2021/03/17 02:24:24;;;;;;;13.70;3.58;;;22.90;64.60;;;;;;5064614;28;20029;-68
2021/03/17 02:27:09;;;;;;;13.55;2.28;;;22.80;67.30;;;;;;5057395;28;20540;-68
2021/03/17 02:30:14;;;;;;;10.10;2.47;;;22.70;67.70;;;;;;5057707;28;20413;-68
2021/03/17 02:32:54;;;;;;;10.88;2.17;;;22.60;67.40;;;;;;5060290;28;20032;-70
2021/03/17 02:35:26;;;;;;;13.35;1.92;;;22.70;68.10;;;;;;5061860;28;20040;-69
2021/03/17 02:37:55;;;;;;;8.88;2.08;;;23.00;67.70;;;;;;5067287;28;20031;-69
2021/03/17 02:40:34;;;;;;;8.57;2.45;;;23.20;67.60;;;;;;5069397;28;20032;-69
2021/03/17 02:43:25;;;;;;;10.23;1.92;;;23.50;67.70;;;;;;5067189;28;20075;-70
2021/03/17 02:45:59;;;;;;;8.52;2.35;;;23.60;66.60;;;;;;5058916;28;20067;-69
2021/03/17 02:48:32;;;;;;;10.13;2.20;;;23.40;66.50;;;;;;5063599;28;20040;-69
2021/03/17 02:51:18;;;;;;;12.95;2.67;;;23.20;68.10;;;;;;5069989;28;20040;-71
2021/03/17 02:53:47;;;;;;;11.30;2.72;;;22.90;72.30;;;;;;5063947;28;20029;-71
2021/03/17 02:56:15;;;;;;;8.57;1.50;;;22.40;75.20;;;;;;5060033;28;20040;-71
2021/03/17 02:58:47;;;;;;;7.00;1.63;;;22.10;75.80;;;;;;5066961;28;20103;-70
2021/03/17 03:01:17;;;;;;;7.57;2.90;;;21.90;77.30;;;;;;5064702;28;20130;-70
2021/03/17 03:03:47;;;;;;;8.07;1.58;;;21.90;77.00;;;;;;5060437;28;20541;-71
2021/03/17 03:06:16;;;;;;;7.82;1.65;;;21.80;77.70;;;;;;5062750;28;20032;-69
2021/03/17 03:08:45;;;;;;;7.63;1.92;;;21.90;77.90;;;;;;5060874;28;20048;-69
2021/03/17 03:11:15;;;;;;;8.30;1.30;;;22.00;77.50;;;;;;5067018;28;20031;-69
2021/03/17 03:13:44;;;;;;;14.10;2.63;;;22.10;75.90;;;;;;5066866;28;20028;-68
2021/03/17 03:16:14;;;;;;;9.50;1.75;;;22.30;75.60;;;;;;5071825;28;20431;-70
2021/03/17 03:18:44;;;;;;;8.32;1.40;;;22.30;75.20;;;;;;5063010;28;20040;-70
2021/03/17 03:21:14;;;;;;;11.95;1.90;;;22.40;74.20;;;;;;5070008;28;20021;-71
2021/03/17 03:23:42;;;;;;;15.77;1.67;;;22.40;73.40;;;;;;5071694;28;20136;-69
2021/03/17 03:26:11;;;;;;;4.82;1.10;;;22.50;73.00;;;;;;5059499;28;20033;-69
2021/03/17 03:28:39;;;;;;;6.35;1.30;;;22.50;71.60;;;;;;5059087;28;20033;-70
2021/03/17 03:31:08;;;;;;;6.10;1.38;;;22.50;71.20;;;;;;5060157;28;20514;-69
2021/03/17 03:33:35;;;;;;;9.38;1.60;;;22.40;71.50;;;;;;5062040;28;20040;-68
2021/03/17 03:36:03;;;;;;;7.80;1.63;;;22.50;72.50;;;;;;5059459;28;20963;-69
2021/03/17 03:38:31;;;;;;;7.18;1.60;;;22.60;71.50;;;;;;5065036;28;20036;-68
2021/03/17 03:40:59;;;;;;;5.03;1.45;;;22.80;70.60;;;;;;5044466;28;20060;-69
2021/03/17 03:43:27;;;;;;;6.28;1.63;;;23.00;69.70;;;;;;5063045;28;20477;-68
2021/03/17 03:45:55;;;;;;;7.38;1.13;;;23.20;69.00;;;;;;5061397;28;20701;-68
2021/03/17 03:48:23;;;;;;;10.25;2.25;;;23.30;68.20;;;;;;5054817;28;20587;-68
2021/03/17 03:50:52;;;;;;;12.40;1.80;;;23.30;67.60;;;;;;5062487;28;20032;-67
2021/03/17 03:53:39;;;;;;;10.13;1.38;;;23.40;67.50;;;;;;5064668;28;20572;-67
2021/03/17 03:56:23;;;;;;;7.93;1.85;;;23.40;66.70;;;;;;5057351;28;20047;-67
2021/03/17 03:59:10;;;;;;;7.63;1.95;;;23.40;66.50;;;;;;5055210;28;20123;-67
2021/03/17 04:01:58;;;;;;;6.07;1.10;;;23.20;68.00;;;;;;5063544;28;20039;-69
2021/03/17 04:04:30;;;;;;;8.65;1.13;;;22.80;69.30;;;;;;5056650;28;20414;-68
2021/03/17 04:07:04;;;;;;;5.90;1.70;;;22.80;70.70;;;;;;5056766;28;20097;-68
2021/03/17 04:09:44;;;;;;;3.13;0.77;;;23.10;69.80;;;;;;5060678;28;20044;-68
2021/03/17 04:12:13;;;;;;;7.13;1.00;;;23.80;68.30;;;;;;5060744;28;20043;-69
2021/03/17 04:14:44;;;;;;;5.47;1.10;;;24.40;66.90;;;;;;5063119;28;20073;-68
2021/03/17 04:17:46;;;;;;;8.30;1.50;;;24.70;65.00;;;;;;5040820;28;20426;-70
2021/03/17 04:20:18;;;;;;;6.32;1.40;;;24.90;65.00;;;;;;5024484;28;20044;-67
2021/03/17 04:22:48;;;;;;;7.43;1.67;;;24.90;64.40;;;;;;5065005;28;20028;-66
2021/03/17 04:25:17;;;;;;;9.70;1.60;;;24.80;64.70;;;;;;5063341;28;20071;-68
2021/03/17 04:27:48;;;;;;;8.07;1.58;;;24.90;65.00;;;;;;5064510;28;20024;-70
2021/03/17 04:30:17;;;;;;;8.43;1.58;;;24.70;64.90;;;;;;5078220;28;20093;-67
2021/03/17 04:32:46;;;;;;;6.82;1.30;;;24.30;64.20;;;;;;5073309;28;20020;-69
2021/03/17 04:35:16;;;;;;;4.70;0.82;;;24.00;64.70;;;;;;5061285;28;20047;-68
2021/03/17 04:37:48;;;;;;;5.30;0.95;;;23.90;65.90;;;;;;5062036;28;20032;-68
2021/03/17 04:40:16;;;;;;;5.68;1.45;;;23.70;66.40;;;;;;5065389;28;20021;-66
2021/03/17 04:42:45;;;;;;;5.10;0.82;;;23.60;67.60;;;;;;5063455;28;20024;-69
2021/03/17 04:45:14;;;;;;;3.17;0.95;;;23.60;68.60;;;;;;5064161;28;20453;-69
2021/03/17 04:47:44;;;;;;;5.63;0.82;;;23.70;67.70;;;;;;5060626;28;20047;-71
2021/03/17 04:50:17;;;;;;;4.35;0.80;;;23.90;66.00;;;;;;5062016;28;20482;-70
2021/03/17 04:52:46;;;;;;;7.80;1.73;;;24.00;66.40;;;;;;5063984;28;20563;-72
2021/03/17 04:55:15;;;;;;;6.32;1.10;;;24.10;66.50;;;;;;5061537;28;20036;-67
2021/03/17 04:57:44;;;;;;;4.90;0.85;;;24.00;66.90;;;;;;5063253;28;20039;-69
2021/03/17 05:00:19;;;;;;;6.38;1.20;;;23.80;67.40;;;;;;5064212;28;20512;-70
2021/03/17 05:02:55;;;;;;;4.55;0.98;;;23.50;67.60;;;;;;5055885;28;20063;-68
2021/03/17 05:05:24;;;;;;;6.63;1.00;;;23.30;69.20;;;;;;5060168;28;20041;-67
2021/03/17 05:07:54;;;;;;;5.90;1.23;;;23.30;70.40;;;;;;5068594;28;20059;-71
2021/03/17 05:10:23;;;;;;;4.60;1.08;;;23.20;71.00;;;;;;5062293;28;20016;-70
2021/03/17 05:12:52;;;;;;;3.55;1.48;;;23.20;70.60;;;;;;5052345;28;20055;-68
2021/03/17 05:15:22;;;;;;;5.68;1.20;;;23.20;70.80;;;;;;5048073;28;20070;-67
2021/03/17 05:17:50;;;;;;;7.43;1.23;;;23.30;70.80;;;;;;5053933;28;20486;-67
2021/03/17 05:20:24;;;;;;;8.40;1.40;;;23.40;70.40;;;;;;5054020;28;20043;-68
2021/03/17 05:22:52;;;;;;;4.72;1.02;;;23.50;70.60;;;;;;5050198;28;20031;-68
2021/03/17 05:25:22;;;;;;;5.68;1.05;;;23.60;70.30;;;;;;5045931;28;20029;-69
2021/03/17 05:28:03;;;;;;;4.32;0.73;;;23.50;70.40;;;;;;5054504;28;20059;-70
2021/03/17 05:30:34;;;;;;;4.80;1.08;;;23.50;70.10;;;;;;5056196;28;20060;-68
2021/03/17 05:33:03;;;;;;;5.28;0.80;;;23.50;69.60;;;;;;5056540;28;21098;-68
2021/03/17 05:35:31;;;;;;;4.93;1.35;;;23.50;69.00;;;;;;5054036;28;20630;-68
2021/03/17 05:37:58;;;;;;;3.83;0.80;;;23.60;68.80;;;;;;5050740;28;20040;-69
2021/03/17 05:40:26;;;;;;;5.18;1.42;;;23.80;68.10;;;;;;5045023;28;20128;-69
2021/03/17 05:42:53;;;;;;;6.05;1.63;;;23.90;66.60;;;;;;5036295;28;20636;-69
2021/03/17 05:45:22;;;;;;;4.03;0.88;;;23.90;66.70;;;;;;5055130;28;20064;-68
2021/03/17 05:47:51;;;;;;;5.05;0.93;;;23.60;67.40;;;;;;5053066;28;20106;-69
2021/03/17 05:50:21;;;;;;;9.38;1.10;;;23.10;69.00;;;;;;5058392;28;20112;-68
2021/03/17 05:52:48;;;;;;;3.05;0.70;;;22.90;70.20;;;;;;5058915;28;20047;-67
2021/03/17 05:55:17;;;;;;;4.63;0.82;;;22.80;70.40;;;;;;5056274;28;20082;-67
2021/03/17 05:57:46;;;;;;;5.63;0.82;;;22.80;70.70;;;;;;5057875;28;20021;-68
2021/03/17 06:00:19;;;;;;;6.57;1.40;;;22.80;71.30;;;;;;5042574;28;20781;-69
2021/03/17 06:02:49;;;;;;;8.27;1.10;;;22.80;71.30;;;;;;5054272;28;20028;-67
2021/03/17 06:05:20;;;;;;;4.95;0.70;;;22.70;71.10;;;;;;5058373;28;20455;-70
2021/03/17 06:08:12;;;;;;;4.45;0.77;;;22.70;70.60;;;;;;5057014;28;20028;-67
2021/03/17 06:10:40;;;;;;;2.03;0.50;;;22.60;69.60;;;;;;5055861;28;20495;-68
2021/03/17 06:13:15;;;;;;;4.57;0.60;;;22.40;69.20;;;;;;5054887;28;20032;-68
2021/03/17 06:16:13;;;;;;;3.92;0.52;;;22.20;69.60;;;;;;5056084;28;20032;-69
2021/03/17 06:18:50;;;;;;;3.55;0.88;;;22.20;70.10;;;;;;5041029;28;20129;-69
2021/03/17 06:21:18;;;;;;;4.40;0.73;;;22.20;70.00;;;;;;5054582;28;20035;-68
2021/03/17 06:23:56;;;;;;;5.70;0.90;;;22.20;70.00;;;;;;5058973;28;20043;-67
2021/03/17 06:26:25;;;;;;;6.28;2.10;;;22.30;70.70;;;;;;5053767;28;20660;-67
2021/03/17 06:28:54;;;;;;;5.07;1.13;;;21.80;75.40;;;;;;5042297;28;20579;-68
2021/03/17 06:31:21;;;;;;;4.88;0.70;;;21.40;80.10;;;;;;5076038;28;20478;-68
2021/03/17 06:33:51;;;;;;;6.18;1.05;;;21.10;82.20;;;;;;5074109;28;20050;-68
2021/03/17 06:36:26;;;;;;;1.40;0.50;;;20.90;83.90;;;;;;5077877;28;20390;-68
2021/03/17 06:39:07;;;;;;;3.58;0.85;;;20.60;84.50;;;;;;5081595;28;20023;-67
2021/03/17 06:41:52;;;;;;;2.60;0.50;;;20.40;85.80;;;;;;5082493;28;20024;-68
2021/03/17 06:44:25;;;;;;;5.18;1.00;;;20.40;86.80;;;;;;5076124;28;20024;-68
2021/03/17 06:47:12;;;;;;;7.07;1.20;;;20.30;87.50;;;;;;5076030;28;20470;-68
2021/03/17 06:49:42;;;;;;;5.13;0.80;;;20.40;87.80;;;;;;5076082;28;20028;-67
2021/03/17 06:52:46;;;;;;;6.30;1.60;;;20.40;87.90;;;;;;5075499;28;20513;-69
2021/03/17 06:55:19;;;;;;;8.98;2.85;;;20.30;87.90;;;;;;5072003;28;20036;-70
2021/03/17 06:57:54;;;;;;;6.53;1.60;;;20.30;87.90;;;;;;5075385;28;20474;-68
2021/03/17 07:00:31;;;;;;;7.32;2.17;;;20.30;87.80;;;;;;5073742;28;20516;-69
2021/03/17 07:03:02;;;;;;;4.57;1.33;;;20.40;88.30;;;;;;5071770;28;20028;-69
2021/03/17 07:05:43;;;;;;;5.13;1.30;;;20.40;88.70;;;;;;5074052;28;20481;-70
2021/03/17 07:08:37;;;;;;;6.07;1.63;;;20.40;87.90;;;;;;5071152;28;20016;-70
2021/03/17 07:11:05;;;;;;;8.45;2.17;;;20.40;89.10;;;;;;5071374;28;20040;-70
2021/03/17 07:13:33;;;;;;;7.97;2.47;;;20.30;89.20;;;;;;5071923;28;20032;-68
2021/03/17 07:16:01;;;;;;;9.60;2.55;;;20.20;89.80;;;;;;5072548;28;20066;-68
2021/03/17 07:18:31;;;;;;;13.07;2.60;;;20.30;89.70;;;;;;5073724;28;20093;-69
2021/03/17 07:21:01;;;;;;;8.65;1.77;;;20.30;90.00;;;;;;5073132;28;20547;-69
2021/03/17 07:23:43;;;;;;;8.25;2.15;;;20.40;90.00;;;;;;5075397;28;20039;-69
2021/03/17 07:26:28;;;;;;;10.10;2.00;;;20.50;89.40;;;;;;5071924;28;20024;-70
2021/03/17 07:28:59;;;;;;;7.28;2.28;;;20.50;88.80;;;;;;5072336;28;20187;-70
2021/03/17 07:31:31;;;;;;;7.28;1.38;;;20.60;88.50;;;;;;5056038;28;20021;-68
2021/03/17 07:34:14;;;;;;;12.25;2.55;;;20.40;87.90;;;;;;5054811;28;20024;-68
2021/03/17 07:36:48;;;;;;;6.60;1.17;;;20.30;88.30;;;;;;5054406;28;20029;-69
2021/03/17 07:39:18;;;;;;;7.75;0.85;;;20.30;89.10;;;;;;5062408;28;20163;-68
2021/03/17 07:41:46;;;;;;;7.70;1.83;;;20.20;89.40;;;;;;5052738;28;20108;-71
2021/03/17 07:44:16;;;;;;;6.63;1.20;;;20.10;90.00;;;;;;5054935;28;20021;-70
2021/03/17 07:46:46;;;;;;;7.90;1.23;;;20.10;89.80;;;;;;5065122;28;20111;-68
2021/03/17 07:49:15;;;;;;;6.25;1.95;;;20.00;89.90;;;;;;5057873;28;20021;-71
2021/03/17 07:51:56;;;;;;;11.43;2.03;;;20.20;89.70;;;;;;5054506;28;20513;-71
2021/03/17 07:54:34;;;;;;;11.68;1.63;;;20.20;89.80;;;;;;5055999;28;20040;-70
2021/03/17 07:57:04;;;;;;;8.77;1.20;;;20.10;89.40;;;;;;5059545;28;20062;-70
2021/03/17 07:59:33;;;;;;;6.85;1.00;;;20.20;89.50;;;;;;5054882;28;20029;-72
2021/03/17 08:02:01;;;;;;;7.53;1.33;;;20.10;89.60;;;;;;5058461;28;20498;-71
2021/03/17 08:04:32;;;;;;;7.88;1.92;;;20.10;89.90;;;;;;5055807;28;20040;-69
2021/03/17 08:07:05;;;;;;;6.43;2.33;;;20.10;89.70;;;;;;5057071;28;20106;-69
2021/03/17 08:09:33;;;;;;;14.40;3.38;;;20.00;90.20;;;;;;5057115;28;20032;-69
2021/03/17 08:12:08;;;;;;;11.10;3.38;;;19.90;90.40;;;;;;5053195;28;20834;-69
2021/03/17 08:14:36;;;;;;;11.35;3.95;;;19.90;90.60;;;;;;5057580;28;20041;-70
2021/03/17 08:17:03;;;;;;;11.90;2.13;;;19.80;91.00;;;;;;5037885;28;20756;-70
2021/03/17 08:19:31;;;;;;;8.13;2.35;;;19.80;91.20;;;;;;5053802;28;20028;-70
2021/03/17 08:22:01;;;;;;;10.85;1.60;;;19.80;91.30;;;;;;5058920;28;20021;-71
2021/03/17 08:24:38;;;;;;;10.35;2.13;;;19.80;91.40;;;;;;5053862;28;20024;-67
2021/03/17 08:27:08;;;;;;;5.28;1.70;;;19.70;91.60;;;;;;5055660;28;20076;-69
2021/03/17 08:29:45;;;;;;;8.25;2.03;;;19.80;91.40;;;;;;5057841;28;20048;-69
2021/03/17 08:32:16;;;;;;;6.03;1.48;;;20.00;90.90;;;;;;5060500;28;20028;-70
2021/03/17 08:34:56;;;;;;;11.05;3.00;;;20.00;90.90;;;;;;5054890;28;20497;-71
2021/03/17 08:37:48;;;;;;;8.38;2.67;;;19.90;91.00;;;;;;5056728;28;20391;-70
2021/03/17 08:40:37;;;;;;;6.38;1.58;;;19.90;91.10;;;;;;5045092;28;20037;-69
2021/03/17 08:43:29;;;;;;;6.97;1.60;;;19.80;91.10;;;;;;5054426;28;20133;-70
2021/03/17 08:46:36;;;;;;;6.40;1.27;;;19.70;90.90;;;;;;5054705;28;20051;-69
2021/03/17 08:49:08;;;;;;;7.53;1.73;;;19.60;91.30;;;;;;5044076;28;20234;-70
2021/03/17 08:51:47;;;;;;;4.88;1.90;;;19.40;91.30;;;;;;5057206;28;20042;-70
2021/03/17 08:54:41;;;;;;;5.80;1.45;;;19.40;91.30;;;;;;5057293;28;20078;-71
2021/03/17 08:57:14;;;;;;;9.55;1.92;;;19.30;91.50;;;;;;5053553;28;20044;-71
2021/03/17 08:59:46;;;;;;;7.30;1.92;;;19.30;91.40;;;;;;5048657;28;20029;-70
2021/03/17 09:02:30;;;;;;;5.75;1.20;;;19.30;91.50;;;;;;5053317;28;20025;-70
2021/03/17 09:05:04;;;;;;;6.30;1.50;;;19.30;91.40;;;;;;5054369;28;20083;-71
2021/03/17 09:07:36;;;;;;;8.85;1.75;;;19.30;91.50;;;;;;5054397;28;20029;-70
2021/03/17 09:10:10;;;;;;;11.18;2.40;;;19.30;91.40;;;;;;5057322;28;20024;-69
2021/03/17 09:12:38;;;;;;;6.20;1.40;;;19.30;91.30;;;;;;5054845;28;20025;-69
2021/03/17 09:15:21;;;;;;;7.95;1.85;;;19.30;91.20;;;;;;5048697;28;20044;-68
2021/03/17 09:17:53;;;;;;;9.18;2.47;;;19.30;91.20;;;;;;5058115;28;20043;-69
2021/03/17 09:20:34;;;;;;;9.35;2.10;;;19.30;91.20;;;;;;5066349;28;20025;-69
2021/03/17 09:23:35;;;;;;;8.48;1.75;;;19.40;91.10;;;;;;5058032;28;20031;-71
2021/03/17 09:26:03;;;;;;;11.27;2.70;;;19.40;91.10;;;;;;5056549;28;20112;-69
2021/03/17 09:28:34;;;;;;;4.47;1.45;;;19.40;91.20;;;;;;5055886;28;20032;-70
2021/03/17 09:31:08;;;;;;;8.82;3.00;;;19.30;91.30;;;;;;5064505;28;20059;-70
2021/03/17 09:33:43;;;;;;;11.05;2.47;;;19.30;91.30;;;;;;5053022;28;20037;-70
2021/03/17 09:36:18;;;;;;;7.57;1.33;;;19.30;91.30;;;;;;5053010;28;20045;-70
2021/03/17 09:38:49;;;;;;;5.85;0.95;;;19.40;91.30;;;;;;5064214;28;20064;-68
2021/03/17 09:41:36;;;;;;;6.45;1.02;;;19.30;91.40;;;;;;5052426;28;20051;-69
2021/03/17 09:44:09;;;;;;;8.30;1.88;;;19.40;91.50;;;;;;5059699;28;20032;-70
2021/03/17 09:46:41;;;;;;;6.22;1.40;;;19.50;91.10;;;;;;5058583;28;20035;-70
2021/03/17 09:49:17;;;;;;;7.45;1.33;;;19.50;91.30;;;;;;5057509;28;20054;-69
2021/03/17 09:51:53;;;;;;;4.70;1.10;;;19.50;91.30;;;;;;5054774;28;20481;-69
2021/03/17 09:54:24;;;;;;;5.78;1.52;;;19.40;91.40;;;;;;5058033;28;20451;-71
2021/03/17 09:56:57;;;;;;;3.40;0.60;;;19.40;91.60;;;;;;5050066;28;20048;-70
2021/03/17 09:59:25;;;;;;;2.65;0.80;;;19.40;91.40;;;;;;5050652;28;20384;-69
2021/03/17 10:02:05;;;;;;;6.05;0.88;;;19.40;91.10;;;;;;5053122;28;20036;-70
2021/03/17 10:04:43;;;;;;;2.95;0.40;;;19.30;91.10;;;;;;5058393;28;20036;-69
2021/03/17 10:07:16;;;;;;;8.27;1.95;;;19.30;91.20;;;;;;5052109;28;20033;-70
2021/03/17 10:09:45;;;;;;;3.65;0.90;;;19.20;91.40;;;;;;5057476;28;20479;-69
2021/03/17 10:12:18;;;;;;;4.40;1.08;;;19.20;91.50;;;;;;5057386;28;20033;-71
2021/03/17 10:14:57;;;;;;;3.65;1.05;;;19.30;91.30;;;;;;5055600;28;20028;-69
2021/03/17 10:17:27;;;;;;;4.57;1.27;;;19.30;91.30;;;;;;5057854;28;20611;-70
2021/03/17 10:19:57;;;;;;;5.93;1.17;;;19.20;91.40;;;;;;5051495;28;20040;-71
2021/03/17 10:22:31;;;;;;;3.78;1.05;;;19.20;91.50;;;;;;5059156;28;20041;-73
2021/03/17 10:25:01;;;;;;;5.97;1.48;;;19.20;91.60;;;;;;5058774;28;20040;-70
2021/03/17 10:27:41;;;;;;;5.53;0.95;;;19.20;91.50;;;;;;5063233;28;20078;-70
2021/03/17 10:30:31;;;;;;;5.47;0.80;;;19.20;91.20;;;;;;5059720;28;20049;-71
2021/03/17 10:33:02;;;;;;;7.85;1.98;;;19.20;91.60;;;;;;5055802;28;20029;-69
2021/03/17 10:35:31;;;;;;;5.47;1.65;;;19.20;91.70;;;;;;5062155;28;20045;-70
2021/03/17 10:38:00;;;;;;;8.82;1.58;;;19.10;92.00;;;;;;5053512;28;20079;-72
2021/03/17 10:40:29;;;;;;;7.50;1.42;;;19.20;91.60;;;;;;5055095;28;20104;-73
2021/03/17 10:43:18;;;;;;;10.52;1.80;;;19.20;91.50;;;;;;5058597;28;20514;-71
2021/03/17 10:45:53;;;;;;;6.28;1.15;;;19.30;91.50;;;;;;5054456;28;20033;-71
2021/03/17 10:48:24;;;;;;;7.30;1.77;;;19.30;91.50;;;;;;5039215;28;20025;-68
2021/03/17 10:50:53;;;;;;;11.65;2.10;;;19.20;91.60;;;;;;5057068;28;20028;-68
2021/03/17 10:53:26;;;;;;;5.68;1.60;;;19.20;91.70;;;;;;5054294;28;20384;-71
2021/03/17 10:55:55;;;;;;;9.15;0.95;;;19.20;91.70;;;;;;5058095;28;20044;-69
2021/03/17 10:58:24;;;;;;;10.40;1.83;;;19.30;91.80;;;;;;5058310;28;20035;-70
2021/03/17 11:00:55;;;;;;;8.40;2.47;;;19.30;91.50;;;;;;5054878;28;20032;-71
2021/03/17 11:03:40;;;;;;;8.38;1.58;;;19.30;91.50;;;;;;5041633;28;20024;-72
2021/03/17 11:06:18;;;;;;;9.32;1.40;;;19.40;91.30;;;;;;5056361;28;20048;-70
2021/03/17 11:09:02;;;;;;;5.88;1.15;;;19.30;91.60;;;;;;5054037;28;20039;-69
2021/03/17 11:11:30;;;;;;;6.20;1.50;;;19.30;91.80;;;;;;5051596;28;20070;-69
2021/03/17 11:13:58;;;;;;;6.40;1.58;;;19.20;92.10;;;;;;5053389;28;20043;-71
2021/03/17 11:16:35;;;;;;;5.95;1.33;;;19.20;92.20;;;;;;5061128;28;20128;-68
2021/03/17 11:19:09;;;;;;;6.93;1.20;;;19.10;92.40;;;;;;5059610;28;20031;-73
2021/03/17 11:21:38;;;;;;;5.53;1.20;;;18.90;92.70;;;;;;5054368;28;20025;-73
2021/03/17 11:24:17;;;;;;;10.25;1.30;;;18.90;92.90;;;;;;5033979;28;20041;-73
2021/03/17 11:26:45;;;;;;;11.20;1.63;;;18.80;93.00;;;;;;5054052;28;20491;-70
2021/03/17 11:29:20;;;;;;;3.47;1.63;;;18.80;93.30;;;;;;5053293;28;20057;-71
2021/03/17 11:31:51;;;;;;;7.47;1.15;;;18.80;93.40;;;;;;5050842;28;20032;-72
2021/03/17 11:34:20;;;;;;;5.53;1.05;;;18.80;93.50;;;;;;5052558;28;20618;-68
2021/03/17 11:36:49;;;;;;;6.20;1.23;;;18.80;93.50;;;;;;5051382;28;20045;-71
2021/03/17 11:39:18;;;;;;;6.40;1.63;;;18.80;93.60;;;;;;5050324;28;20131;-70
2021/03/17 11:41:48;;;;;;;4.47;1.00;;;18.80;93.50;;;;;;5052119;28;20112;-68
2021/03/17 11:44:18;;;;;;;5.15;0.70;;;18.80;93.40;;;;;;5048683;28;20364;-70
2021/03/17 11:46:45;;;;;;;7.68;1.20;;;18.80;93.30;;;;;;5051613;28;20043;-71
2021/03/17 11:49:15;;;;;;;6.40;0.88;;;18.80;93.40;;;;;;5050947;28;20043;-73
2021/03/17 11:51:46;;;;;;;4.15;1.15;;;18.80;93.40;;;;;;5035553;28;20035;-71
2021/03/17 11:54:14;;;;;;;4.25;1.20;;;18.80;93.50;;;;;;5052980;28;20418;-70
2021/03/17 11:56:42;;;;;;;6.28;1.63;;;18.80;93.60;;;;;;5053896;28;20040;-70
2021/03/17 11:59:10;;;;;;;6.72;1.02;;;18.80;93.50;;;;;;5052628;28;20098;-71
2021/03/17 12:01:37;;;;;;;9.18;1.90;;;18.80;93.60;;;;;;5053451;28;20039;-69
2021/03/17 12:04:05;;;;;;;3.50;1.42;;;18.80;93.50;;;;;;5061931;28;20032;-68
2021/03/17 12:06:33;;;;;;;6.65;1.23;;;18.70;93.70;;;;;;5041430;28;20553;-71
2021/03/17 12:09:00;;;;;;;3.38;0.82;;;18.70;93.70;;;;;;5050352;28;20058;-72
2021/03/17 12:11:29;;;;;;;8.57;1.55;;;18.80;93.70;;;;;;5052519;28;20053;-71
2021/03/17 12:13:56;;;;;;;6.50;0.95;;;18.70;94.00;;;;;;5051537;28;20033;-70
2021/03/17 12:16:24;;;;;;;5.47;1.52;;;18.70;93.90;;;;;;5031600;28;20422;-72
2021/03/17 12:18:51;;;;;;;9.32;2.90;;;18.70;94.00;;;;;;5036274;28;20086;-73
2021/03/17 12:21:18;;;;;;;4.95;0.88;;;18.60;94.30;;;;;;5051687;28;20025;-72
2021/03/17 12:23:47;;;;;;;8.30;1.40;;;18.60;94.10;;;;;;5051993;28;20029;-73
2021/03/17 12:26:15;;;;;;;15.88;2.28;;;18.60;94.00;;;;;;5053843;28;20017;-71
2021/03/17 12:28:43;;;;;;;7.97;1.50;;;18.50;94.10;;;;;;5049844;28;20024;-70
2021/03/17 12:31:10;;;;;;;5.32;1.27;;;18.60;94.00;;;;;;5050206;28;20036;-70
2021/03/17 12:33:38;;;;;;;5.93;1.25;;;18.60;94.20;;;;;;5052799;28;20041;-71
2021/03/17 12:36:06;;;;;;;5.65;1.65;;;18.60;94.20;;;;;;5052040;28;20117;-69
2021/03/17 12:38:34;;;;;;;9.23;1.38;;;18.60;94.10;;;;;;5055717;28;20486;-69
2021/03/17 12:41:01;;;;;;;9.35;1.65;;;18.60;94.30;;;;;;5033753;28;20025;-71
2021/03/17 12:43:29;;;;;;;5.20;1.15;;;18.60;94.20;;;;;;5056069;28;20478;-72
2021/03/17 12:45:56;;;;;;;10.25;1.77;;;18.60;94.10;;;;;;5057160;28;20033;-71
2021/03/17 12:48:24;;;;;;;10.30;2.20;;;18.60;94.30;;;;;;5053418;28;20675;-69
2021/03/17 12:50:51;;;;;;;8.50;2.20;;;18.60;94.30;;;;;;5050529;28;20048;-68
2021/03/17 12:53:19;;;;;;;12.52;2.88;;;18.60;94.20;;;;;;5051161;28;20079;-70
2021/03/17 12:55:46;;;;;;;9.00;1.60;;;18.60;94.10;;;;;;5050264;28;20553;-70
2021/03/17 12:58:13;;;;;;;8.25;2.15;;;18.60;94.10;;;;;;5059149;28;20052;-70
2021/03/17 13:00:41;;;;;;;8.23;2.05;;;18.60;94.10;;;;;;5051639;28;20027;-68
2021/03/17 13:03:09;;;;;;;9.93;2.75;;;18.70;94.10;;;;;;5050518;28;20067;-67
2021/03/17 13:05:36;;;;;;;5.78;1.60;;;18.70;94.10;;;;;;5054059;28;20032;-70
2021/03/17 13:08:04;;;;;;;8.35;1.70;;;18.60;94.20;;;;;;5055480;28;20021;-71
2021/03/17 13:10:33;;;;;;;5.53;1.77;;;18.60;94.30;;;;;;5048931;28;20051;-69
2021/03/17 13:13:00;;;;;;;13.85;2.20;;;18.60;94.30;;;;;;5050960;28;20445;-73